Melbourne, FL

2:42 AM EDT on August 25, 2016 (GMT -0400)
Melbourne International | | Change Station

Elev 33 ft 28.10 °N, 80.65 °W | Updated 49 minutes ago

Clear
Clear
82 °F
Feels Like 89 °F
N
16
Wind Variable Wind from NE

Today
High -- | Low -- °F
--% Chance of Precip.
Yesterday
High -- | Low -- °F
Precip. -- in
Pressure 30.02 in
Visibility 10.0 miles
Clouds Clear
Heat Index 89 °F
Dew Point 76 °F
Humidity 82%
Rainfall 0.00 in
Snow Depth Not available.
6:57 AM 7:50 PM
Waning Gibbous, 49% visible
METAR KMLB 250553Z AUTO 05014KT 10SM CLR 28/24 A3002 RMK AO2 SLP166 T02780244 10283 20272 58020
Pressure 30.02 in
Visibility 10.0 miles
Clouds Clear
Heat Index 89 °F
Dew Point 76 °F
Humidity 82%
Rainfall 0.00 in
Snow Depth Not available.
6:57 AM 7:50 PM
Waning Gibbous, 49% visible
METAR KMLB 250553Z AUTO 05014KT 10SM CLR 28/24 A3002 RMK AO2 SLP166 T02780244 10283 20272 58020

10-Day Weather Forecast

Almanac

Astronomy

Aug. 25, 2016 Rise Set
Actual Time
Civil Twilight
Nautical Twilight
Astronomical Twilight
Moon
Length of Visible Light
Length of Day
Tomorrow will be .
, % of the Moon is Illuminated

Today's Extremes

State Highs State Lows

Community

WunderPhotos

Upload Photos

1,934,803 photos uploaded!

WunderBlog® & News

Nearby

Air Quality

  Air Quality AQ Index Pollutant
Not available.

Snow Depth

Station Depth Elevation

Earthquake Activity

City Distance Mag. Time & Date
Minimum magnitude displayed is 2.5.

Coastal Water Temperatures

Place Temperature

Stations

Nearby Weather Stations

Station Location Temp. Windchill Dew Point Humidity Wind Precip. Elev Updated Type
                   

Watches & Warnings

There are currently no watches in effect.